Pine Hills, Florida
Current Conditions -  °F | °C
As of 4:53 AM on Sunday 21 Dec 2014 (Local Time) from KORL Reporting Station
Broken Clouds Broken Clouds  
Wind Chill: 17°   Ceiling: 10000
Heat Index: 17°   Visibility: 9mi
Dew Point: 16°   Wind: 3mph
Humidity: 93%   Direction: 90°E
Pressure: 30.06"   Gusts: NA
Location:  28.55°N, 81.45°W
Report Text: KORL 210953Z AUTO 09003KT 9SM SCT080 BKN100 17/16 A3006 RMK AO2 SLP183 T01720161
Loading
Personal Weather Stations






























Interactive Weather Map New forecast layout! Learn more

10-Day Weather Forecast

Advertisements
Track Severe Weather on mobile